This is the latest recevied weather packets stored in our database for station/object CA2RRL-10. If no packets are shown the sender has not sent any weather packets the latest 10 day(s).
| Time | Temp. | Humidity | Pressure | Rain* | Wind** | Luminosity | Snow |
|---|---|---|---|---|---|---|---|
| 1777751302 | 30.56° C | 15% | 1028.3 hPa | - | - | - | - |
| 1777750402 | 30.56° C | 12% | 1028.4 hPa | - | - | - | - |
| 1777749502 | 31.11° C | 13% | 1028.3 hPa | - | - | - | - |
| 1777748602 | 31.11° C | 12% | 1028.2 hPa | - | - | - | - |
| 1777747702 | 31.11° C | 12% | 1028.2 hPa | - | - | - | - |
| 1777746802 | 31.11° C | 12% | 1028.3 hPa | - | - | - | - |
| 1777745902 | 30.56° C | 12% | 1028.3 hPa | - | - | - | - |
| 1777745002 | 30.56° C | 12% | 1028.5 hPa | - | - | - | - |
| 1777744102 | 30° C | 14% | 1028.7 hPa | - | - | - | - |
| 1777743201 | 29.44° C | 15% | 1028.7 hPa | - | - | - | - |
| 1777742301 | 28.89° C | 19% | 1029.1 hPa | - | - | - | - |
| 1777741401 | 28.33° C | 20% | 1029.2 hPa | - | - | - | - |
| 1777740501 | 27.78° C | 21% | 1029.5 hPa | - | - | - | - |
| 1777739601 | 26.67° C | 22% | 1029.8 hPa | - | - | - | - |
| 1777738701 | 25.56° C | 24% | 1030 hPa | - | - | - | - |
| 1777737801 | 24.44° C | 26% | 1030.2 hPa | - | - | - | - |
| 1777736901 | 23.33° C | 29% | 1030.4 hPa | - | - | - | - |
| 1777736001 | 21.67° C | 31% | 1030.6 hPa | - | - | - | - |
| 1777735101 | 20.56° C | 33% | 1030.8 hPa | - | - | - | - |
| 1777734201 | 18.89° C | 35% | 1031 hPa | - | - | - | - |
| 1777733300 | 17.78° C | 37% | 1031.2 hPa | - | - | - | - |
| 1777732400 | 16.11° C | 39% | 1031.3 hPa | - | - | - | - |
| 1777731500 | 15° C | 41% | 1031.5 hPa | - | - | - | - |
| 1777730600 | 13.89° C | 47% | 1031.6 hPa | - | - | - | - |
| 1777729700 | 12.78° C | 48% | 1031.7 hPa | - | - | - | - |
* Rain since midnight (hover to see other rain measurements)
** Current wind speed in m/s (hover to see current wind gust speed)